Time;durP1;ratioP1;P1;durP2;ratioP2;P2;SDS_P1;SDS_P2;PMS_P1;PMS_P2;Temp;Humidity;BMP_temperature;BMP_pressure;BME280_temperature;BME280_humidity;BME280_pressure;Samples;Min_cycle;Max_cycle;Signal;HPM_P1;HPM_P2
2022/04/25 00:00:36;;;;;;;16.60;13.25;;;8.40;99.90;;;;;;5090055;27;20117;-75
2022/04/25 00:03:03;;;;;;;14.98;13.27;;;8.40;99.90;;;;;;5105300;27;20061;-75
2022/04/25 00:05:29;;;;;;;15.20;13.07;;;8.30;99.90;;;;;;5086721;27;20047;-74
2022/04/25 00:07:55;;;;;;;18.83;14.80;;;8.30;99.90;;;;;;5107921;27;20058;-74
2022/04/25 00:10:21;;;;;;;18.88;14.40;;;8.40;99.90;;;;;;5122433;27;20232;-74
2022/04/25 00:12:47;;;;;;;18.35;13.85;;;8.30;99.90;;;;;;5124092;27;20129;-74
2022/04/25 00:15:13;;;;;;;17.98;14.95;;;8.40;99.90;;;;;;5106481;27;20382;-75
2022/04/25 00:17:39;;;;;;;17.77;15.25;;;8.40;99.90;;;;;;5107385;27;20058;-75
2022/04/25 00:20:07;;;;;;;16.80;13.75;;;8.40;99.90;;;;;;5104832;27;20156;-75
2022/04/25 00:22:33;;;;;;;16.23;14.43;;;8.40;99.90;;;;;;5085407;27;20111;-75
2022/04/25 00:24:59;;;;;;;18.73;15.57;;;8.40;99.90;;;;;;5120235;27;20603;-75
2022/04/25 00:27:27;;;;;;;17.95;15.10;;;8.40;99.90;;;;;;5079369;27;20405;-75
2022/04/25 00:29:53;;;;;;;17.23;15.25;;;8.40;99.90;;;;;;5119830;27;20053;-74
2022/04/25 00:32:19;;;;;;;18.77;15.77;;;8.40;99.90;;;;;;5086793;27;20051;-74
2022/04/25 00:34:44;;;;;;;18.20;15.43;;;8.40;99.90;;;;;;5118860;27;20048;-74
2022/04/25 00:37:10;;;;;;;19.13;15.27;;;8.40;99.90;;;;;;5086203;27;20050;-74
2022/04/25 00:39:36;;;;;;;23.17;18.17;;;8.40;99.90;;;;;;5088403;27;20039;-74
2022/04/25 00:42:05;;;;;;;22.05;18.52;;;8.40;99.90;;;;;;5102312;27;20054;-73
2022/04/25 00:44:31;;;;;;;22.98;19.13;;;8.40;99.90;;;;;;5090536;27;20272;-73
2022/04/25 00:46:59;;;;;;;21.27;18.48;;;8.30;99.90;;;;;;5123060;27;20047;-73
2022/04/25 00:49:25;;;;;;;23.27;20.10;;;8.30;99.90;;;;;;5104174;27;20040;-74
2022/04/25 00:51:54;;;;;;;22.23;19.77;;;8.30;99.90;;;;;;5102604;27;20070;-74
2022/04/25 00:54:23;;;;;;;26.20;21.05;;;8.30;99.90;;;;;;5120539;27;20049;-74
2022/04/25 00:56:49;;;;;;;26.95;23.25;;;8.20;99.90;;;;;;5122251;27;20058;-74
2022/04/25 00:59:17;;;;;;;23.38;20.90;;;8.20;99.90;;;;;;5106348;27;20532;-74
2022/04/25 01:01:44;;;;;;;27.70;22.83;;;8.20;99.90;;;;;;5089464;27;20047;-73
2022/04/25 01:04:10;;;;;;;25.50;22.65;;;8.10;99.90;;;;;;5123494;27;20058;-73
2022/04/25 01:06:36;;;;;;;26.42;23.45;;;8.10;99.90;;;;;;5123609;27;20134;-74
2022/04/25 01:09:03;;;;;;;28.23;23.88;;;8.10;99.90;;;;;;5088338;27;20477;-74
2022/04/25 01:11:29;;;;;;;29.35;24.38;;;8.10;99.90;;;;;;5103298;27;20055;-73
2022/04/25 01:13:55;;;;;;;29.73;26.20;;;8.00;99.90;;;;;;5104995;27;20077;-74
2022/04/25 01:16:21;;;;;;;30.15;25.88;;;8.00;99.90;;;;;;5104598;27;20049;-73
2022/04/25 01:18:47;;;;;;;30.10;26.02;;;8.00;99.90;;;;;;5102481;27;20043;-74
2022/04/25 01:21:17;;;;;;;30.25;24.92;;;7.90;99.90;;;;;;5122484;27;20047;-73
2022/04/25 01:29:13;;;;;;;32.75;25.45;;;7.90;99.90;;;;;;5092501;27;20059;-73
2022/04/25 01:31:39;;;;;;;30.20;26.77;;;7.90;99.90;;;;;;5123329;27;20490;-74
2022/04/25 01:34:05;;;;;;;32.17;26.55;;;7.90;99.90;;;;;;5087150;28;20191;-74
2022/04/25 01:36:31;;;;;;;30.50;26.63;;;7.90;99.90;;;;;;5121734;27;20505;-74
2022/04/25 01:38:57;;;;;;;30.92;25.80;;;7.90;99.90;;;;;;5118003;28;20477;-74
2022/04/25 01:41:23;;;;;;;31.20;25.58;;;7.90;99.90;;;;;;5084349;28;20255;-74
2022/04/25 01:43:49;;;;;;;32.10;26.30;;;7.90;99.90;;;;;;5102871;28;20043;-74
2022/04/25 01:46:14;;;;;;;29.35;26.10;;;7.90;99.90;;;;;;5121322;28;20059;-74
2022/04/25 01:48:40;;;;;;;29.15;25.92;;;7.90;99.90;;;;;;5088076;28;20039;-74
2022/04/25 01:51:06;;;;;;;31.35;26.13;;;7.90;99.90;;;;;;5123334;27;20043;-74
2022/04/25 01:53:35;;;;;;;32.65;28.33;;;7.80;99.90;;;;;;5109709;27;20043;-74
2022/04/25 01:56:00;;;;;;;31.13;26.88;;;7.90;99.90;;;;;;5106847;27;20150;-74
2022/04/25 01:58:26;;;;;;;32.03;26.48;;;7.80;99.90;;;;;;5126081;27;20141;-74
2022/04/25 02:00:53;;;;;;;35.17;28.00;;;7.80;99.90;;;;;;5091053;27;20306;-74
2022/04/25 02:03:22;;;;;;;30.92;26.98;;;7.80;99.90;;;;;;5127801;27;20047;-74
2022/04/25 02:05:48;;;;;;;33.47;26.75;;;7.80;99.90;;;;;;5128706;27;20051;-73
2022/04/25 02:08:14;;;;;;;30.00;26.75;;;7.80;99.90;;;;;;5127884;27;20121;-74
2022/04/25 02:10:39;;;;;;;31.67;28.27;;;7.80;99.90;;;;;;5123174;27;20062;-74
2022/04/25 02:13:05;;;;;;;33.00;27.17;;;7.80;99.90;;;;;;5106962;28;20043;-72
2022/04/25 02:15:31;;;;;;;30.02;26.48;;;7.70;99.90;;;;;;5104957;27;20035;-73
2022/04/25 02:17:57;;;;;;;29.75;25.85;;;7.70;99.90;;;;;;5127250;27;20046;-73
2022/04/25 02:20:23;;;;;;;33.30;28.08;;;7.60;99.90;;;;;;5109615;27;20681;-74
2022/04/25 02:22:49;;;;;;;30.45;27.23;;;7.60;99.90;;;;;;5086594;28;20056;-73
2022/04/25 02:25:15;;;;;;;30.67;27.05;;;7.60;99.90;;;;;;5094100;27;20066;-74
2022/04/25 02:27:40;;;;;;;34.28;27.20;;;7.50;99.90;;;;;;5091873;27;20046;-73
2022/04/25 02:30:07;;;;;;;32.50;25.52;;;7.50;99.90;;;;;;5103217;27;20104;-74
2022/04/25 02:32:33;;;;;;;28.42;25.25;;;7.50;99.90;;;;;;5114961;27;20051;-74
2022/04/25 02:34:59;;;;;;;29.35;25.27;;;7.50;99.90;;;;;;5118989;27;20547;-73
2022/04/25 02:37:25;;;;;;;30.20;24.90;;;7.40;99.90;;;;;;5115999;27;20054;-73
2022/04/25 02:39:51;;;;;;;26.50;23.60;;;7.40;99.90;;;;;;5097376;27;20086;-74
2022/04/25 02:42:17;;;;;;;27.80;24.42;;;7.40;99.90;;;;;;5090448;27;20071;-73
2022/04/25 02:44:43;;;;;;;33.88;26.17;;;7.40;99.90;;;;;;5109867;27;20055;-74
2022/04/25 02:47:09;;;;;;;27.40;24.27;;;7.40;99.90;;;;;;5111041;27;20047;-74
2022/04/25 02:49:35;;;;;;;27.85;24.83;;;7.40;99.90;;;;;;5076435;28;20036;-73
2022/04/25 02:52:04;;;;;;;30.65;24.35;;;7.40;99.90;;;;;;5117039;27;20039;-73
2022/04/25 02:54:30;;;;;;;27.43;24.47;;;7.40;99.90;;;;;;5098140;27;20047;-73
2022/04/25 02:56:56;;;;;;;27.83;24.02;;;7.30;99.90;;;;;;5117937;27;20604;-74
2022/04/25 02:59:22;;;;;;;27.83;23.60;;;7.40;99.90;;;;;;5119905;27;20460;-73
2022/04/25 03:01:48;;;;;;;28.50;23.70;;;7.30;99.90;;;;;;5091648;28;20468;-73
2022/04/25 03:04:13;;;;;;;26.27;22.92;;;7.40;99.90;;;;;;5085758;28;20059;-73
2022/04/25 03:06:39;;;;;;;25.77;22.45;;;7.40;99.90;;;;;;5114782;27;20051;-73
2022/04/25 03:09:05;;;;;;;26.83;21.83;;;7.40;99.90;;;;;;5125873;27;20509;-73
2022/04/25 03:11:33;;;;;;;25.02;22.25;;;7.40;99.90;;;;;;5102823;27;20051;-74
2022/04/25 03:13:59;;;;;;;24.35;21.85;;;7.40;99.90;;;;;;5113170;27;20055;-73
2022/04/25 03:16:25;;;;;;;24.00;21.10;;;7.50;99.90;;;;;;5105173;28;20048;-73
2022/04/25 03:18:51;;;;;;;25.10;21.98;;;7.40;99.90;;;;;;5105656;27;20040;-73
2022/04/25 03:21:16;;;;;;;25.33;21.00;;;7.50;99.90;;;;;;5124832;27;20073;-73
2022/04/25 03:23:42;;;;;;;26.70;22.85;;;7.50;99.90;;;;;;5124675;27;20058;-74
2022/04/25 03:26:08;;;;;;;24.02;20.85;;;7.50;99.90;;;;;;5087900;27;20046;-73
2022/04/25 03:28:34;;;;;;;24.13;21.52;;;7.50;99.90;;;;;;5126401;27;20049;-73
2022/04/25 03:31:00;;;;;;;25.02;20.92;;;7.50;99.90;;;;;;5111755;27;20035;-73
2022/04/25 03:33:31;;;;;;;27.90;21.30;;;7.50;99.90;;;;;;5110249;27;20047;-73
2022/04/25 03:35:57;;;;;;;24.15;20.75;;;7.50;99.90;;;;;;5128240;27;20201;-73
2022/04/25 03:38:23;;;;;;;25.20;21.50;;;7.50;99.90;;;;;;5127974;27;20493;-73
2022/04/25 03:40:49;;;;;;;27.27;22.05;;;7.50;99.90;;;;;;5109756;27;20123;-72
2022/04/25 03:43:17;;;;;;;24.95;20.10;;;7.50;99.90;;;;;;5107036;27;20053;-72
2022/04/25 03:45:43;;;;;;;22.63;19.23;;;7.50;99.90;;;;;;5110660;27;20088;-72
2022/04/25 03:48:09;;;;;;;25.15;19.52;;;7.50;99.90;;;;;;5126447;27;20102;-73
2022/04/25 03:50:35;;;;;;;22.30;19.52;;;7.50;99.90;;;;;;5146535;27;20138;-73
2022/04/25 03:53:06;;;;;;;25.27;20.33;;;7.50;99.90;;;;;;5128385;27;20082;-73
2022/04/25 03:58:17;;;;;;;23.75;19.80;;;7.50;99.90;;;;;;5107897;27;20046;-73
2022/04/25 04:00:43;;;;;;;24.45;20.45;;;7.40;99.90;;;;;;5091757;27;20511;-73
2022/04/25 04:03:12;;;;;;;23.17;20.80;;;7.40;99.90;;;;;;5107031;27;20073;-73
2022/04/25 04:05:40;;;;;;;26.02;20.52;;;7.50;99.90;;;;;;5093913;27;20153;-73
2022/04/25 04:08:06;;;;;;;26.55;20.80;;;7.40;99.90;;;;;;5127729;27;20429;-73
2022/04/25 04:10:35;;;;;;;26.83;21.05;;;7.40;99.90;;;;;;5125431;27;20046;-73
2022/04/25 04:13:01;;;;;;;26.40;21.23;;;7.40;99.90;;;;;;5111006;27;20527;-74
2022/04/25 04:15:27;;;;;;;27.40;21.20;;;7.40;99.90;;;;;;5143530;27;20371;-73
2022/04/25 04:17:52;;;;;;;25.83;22.02;;;7.40;99.90;;;;;;5127636;27;20481;-73
2022/04/25 04:20:18;;;;;;;24.50;20.05;;;7.40;99.90;;;;;;5144127;27;20477;-73
2022/04/25 04:22:44;;;;;;;25.17;20.83;;;7.50;99.90;;;;;;5076439;27;20119;-73
2022/04/25 04:25:14;;;;;;;24.13;21.58;;;7.40;99.90;;;;;;5092555;27;20051;-73
2022/04/25 04:27:41;;;;;;;24.35;20.85;;;7.40;99.90;;;;;;5109012;27;20042;-73
2022/04/25 04:30:11;;;;;;;26.50;20.98;;;7.40;99.90;;;;;;5111308;27;20054;-74
2022/04/25 04:32:40;;;;;;;24.52;21.02;;;7.40;99.90;;;;;;5109779;27;20640;-73
2022/04/25 04:35:12;;;;;;;25.55;21.13;;;7.30;99.90;;;;;;5123652;27;20081;-73
2022/04/25 04:37:40;;;;;;;26.17;21.20;;;7.30;99.90;;;;;;5126020;27;20093;-73
2022/04/25 04:40:28;;;;;;;24.02;21.48;;;7.30;99.90;;;;;;5146064;27;20042;-73
2022/04/25 04:42:54;;;;;;;25.42;19.92;;;7.30;99.90;;;;;;5127134;27;20077;-74
2022/04/25 04:45:20;;;;;;;26.55;22.80;;;7.40;99.90;;;;;;5127097;27;20031;-74
2022/04/25 04:47:46;;;;;;;25.17;20.38;;;7.40;99.90;;;;;;5109014;27;22336;-74
2022/04/25 04:50:16;;;;;;;25.23;22.27;;;7.40;99.90;;;;;;5127495;27;20471;-73
2022/04/25 04:52:56;;;;;;;23.90;21.15;;;7.40;99.90;;;;;;5092582;27;20586;-73
2022/04/25 04:55:22;;;;;;;24.13;20.08;;;7.40;99.90;;;;;;5108478;27;20050;-74
2022/04/25 04:57:48;;;;;;;22.92;19.95;;;7.40;99.90;;;;;;5090989;27;20069;-74
2022/04/25 05:00:15;;;;;;;23.92;19.67;;;7.50;99.90;;;;;;5143016;27;20548;-74
2022/04/25 05:02:43;;;;;;;22.70;20.30;;;7.40;99.90;;;;;;5105878;27;20046;-73
2022/04/25 05:05:10;;;;;;;26.85;21.45;;;7.40;99.90;;;;;;5125111;27;20049;-73
2022/04/25 05:07:36;;;;;;;23.08;19.70;;;7.40;99.90;;;;;;5125246;27;20123;-73
2022/04/25 05:10:09;;;;;;;22.02;19.08;;;7.50;99.90;;;;;;5109230;27;20450;-74
2022/04/25 05:12:44;;;;;;;21.88;17.75;;;7.50;99.90;;;;;;5120249;27;20498;-73
2022/04/25 05:15:10;;;;;;;19.73;17.50;;;7.50;99.90;;;;;;5126874;27;20046;-74
2022/04/25 05:17:36;;;;;;;21.45;17.48;;;7.50;99.90;;;;;;5110033;27;20053;-73
2022/04/25 05:20:03;;;;;;;18.65;16.55;;;7.50;99.90;;;;;;5091998;27;20051;-73
2022/04/25 05:22:28;;;;;;;17.50;15.38;;;7.60;99.90;;;;;;5088693;27;20824;-73
2022/04/25 05:24:54;;;;;;;20.13;17.13;;;7.50;99.90;;;;;;5090246;27;20051;-72
2022/04/25 05:27:21;;;;;;;19.23;15.63;;;7.50;99.90;;;;;;5089612;27;20473;-73
2022/04/25 05:29:47;;;;;;;17.77;15.82;;;7.50;99.90;;;;;;5127200;27;20050;-73
2022/04/25 05:32:15;;;;;;;17.05;15.35;;;7.50;99.90;;;;;;5126579;27;20045;-74
2022/04/25 05:34:41;;;;;;;21.10;16.15;;;7.50;99.90;;;;;;5118330;27;20279;-73
2022/04/25 05:37:07;;;;;;;18.83;16.55;;;7.40;99.90;;;;;;5086161;27;20054;-73
2022/04/25 05:39:33;;;;;;;17.48;14.73;;;7.50;99.90;;;;;;5088238;27;20038;-73
2022/04/25 05:41:59;;;;;;;19.70;16.38;;;7.50;99.90;;;;;;5091397;27;20042;-73
2022/04/25 05:44:25;;;;;;;20.75;16.73;;;7.50;99.90;;;;;;5108929;27;20500;-73
2022/04/25 05:46:51;;;;;;;19.55;16.63;;;7.50;99.90;;;;;;5106066;27;20050;-73
2022/04/25 05:52:05;;;;;;;18.15;16.20;;;7.50;99.90;;;;;;5106154;27;20054;-73
2022/04/25 05:54:31;;;;;;;17.88;15.98;;;7.60;99.90;;;;;;5105145;27;20102;-73
2022/04/25 05:56:57;;;;;;;19.73;17.40;;;7.50;99.90;;;;;;5119869;27;20485;-72
2022/04/25 05:59:24;;;;;;;20.85;17.65;;;7.50;99.90;;;;;;5091526;27;20135;-73
2022/04/25 06:01:50;;;;;;;19.45;16.80;;;7.50;99.90;;;;;;5108565;27;20107;-73
2022/04/25 06:04:16;;;;;;;19.33;16.33;;;7.50;99.90;;;;;;5108877;27;20046;-73
2022/04/25 06:06:42;;;;;;;19.40;17.08;;;7.50;99.90;;;;;;5092221;27;20038;-73
2022/04/25 06:09:08;;;;;;;19.23;16.88;;;7.50;99.90;;;;;;5122562;27;20540;-74
2022/04/25 06:11:33;;;;;;;21.83;17.95;;;7.60;99.90;;;;;;5089721;27;20162;-73
2022/04/25 06:14:01;;;;;;;19.92;17.15;;;7.60;99.90;;;;;;5117890;27;20130;-73
2022/04/25 06:16:29;;;;;;;22.33;19.00;;;7.60;99.90;;;;;;5122540;27;20038;-73
2022/04/25 06:18:55;;;;;;;20.33;17.25;;;7.70;99.90;;;;;;5108931;27;20508;-74
2022/04/25 06:21:21;;;;;;;18.63;16.73;;;7.70;99.90;;;;;;5125185;27;20043;-73
2022/04/25 06:23:47;;;;;;;19.90;17.70;;;7.80;99.90;;;;;;5139186;27;20061;-73
2022/04/25 06:26:13;;;;;;;23.10;18.73;;;7.80;99.90;;;;;;5103819;27;20539;-73
2022/04/25 06:28:39;;;;;;;21.98;17.80;;;7.90;99.90;;;;;;5090770;27;20126;-74
2022/04/25 06:31:04;;;;;;;23.48;18.92;;;7.90;99.90;;;;;;5107587;27;20059;-79
2022/04/25 06:33:30;;;;;;;23.15;17.90;;;7.90;99.90;;;;;;5110085;27;20446;-79
2022/04/25 06:35:56;;;;;;;19.75;17.67;;;7.90;99.90;;;;;;5108648;27;20034;-77
2022/04/25 06:38:22;;;;;;;21.10;18.60;;;8.00;99.90;;;;;;5094987;27;20039;-76
2022/04/25 06:40:48;;;;;;;20.30;18.10;;;8.00;99.90;;;;;;5112229;27;20123;-76
2022/04/25 06:43:16;;;;;;;20.58;18.10;;;8.00;99.90;;;;;;5108140;27;20039;-78
2022/04/25 06:45:42;;;;;;;19.48;17.33;;;8.00;99.90;;;;;;5129939;27;20050;-77
2022/04/25 06:48:08;;;;;;;19.90;16.80;;;7.90;99.90;;;;;;5110897;27;20047;-77
2022/04/25 06:50:34;;;;;;;17.63;15.43;;;7.90;99.90;;;;;;5093767;27;20039;-78
2022/04/25 06:53:00;;;;;;;19.25;15.48;;;8.00;99.90;;;;;;5075561;27;20079;-77
2022/04/25 06:55:26;;;;;;;18.58;16.60;;;7.90;99.90;;;;;;5129452;27;20735;-78
2022/04/25 06:57:53;;;;;;;19.80;16.23;;;8.00;99.90;;;;;;5075737;27;20080;-78
2022/04/25 07:00:20;;;;;;;17.60;15.82;;;7.90;99.90;;;;;;5111881;27;20047;-79
2022/04/25 07:02:47;;;;;;;16.80;15.00;;;7.90;99.90;;;;;;5128991;27;20490;-78
2022/04/25 07:05:12;;;;;;;16.90;15.20;;;7.90;99.90;;;;;;5112125;27;20555;-78
2022/04/25 07:07:38;;;;;;;17.77;14.93;;;7.90;99.90;;;;;;5112010;27;20050;-78
2022/04/25 07:10:06;;;;;;;16.42;14.40;;;7.90;99.90;;;;;;5112088;27;20043;-78
2022/04/25 07:12:35;;;;;;;18.90;14.68;;;7.90;99.90;;;;;;5111996;27;20050;-79
2022/04/25 07:15:01;;;;;;;15.10;13.50;;;7.90;99.90;;;;;;5096196;27;20046;-78
2022/04/25 07:17:26;;;;;;;17.30;14.00;;;7.90;99.90;;;;;;5128844;27;20125;-78
2022/04/25 07:19:52;;;;;;;18.27;15.18;;;7.90;99.90;;;;;;5107435;27;20082;-78
2022/04/25 07:30:38;;;;;;;17.35;13.15;;;7.90;99.90;;;;;;5111459;27;20195;-76
2022/04/25 07:33:04;;;;;;;17.35;14.43;;;7.90;99.90;;;;;;5105732;27;20099;-82
2022/04/25 07:35:30;;;;;;;15.13;13.02;;;7.90;99.90;;;;;;5111583;27;20098;-82
2022/04/25 07:37:56;;;;;;;17.15;14.07;;;7.90;99.90;;;;;;5109716;27;20082;-79
2022/04/25 07:40:23;;;;;;;18.40;14.00;;;7.90;99.90;;;;;;5110843;27;20078;-79
2022/04/25 07:42:49;;;;;;;16.13;14.48;;;7.90;99.90;;;;;;5124562;27;20039;-79
2022/04/25 07:45:15;;;;;;;17.80;14.05;;;7.90;99.90;;;;;;5092153;27;20062;-78
2022/04/25 07:47:43;;;;;;;16.48;14.77;;;7.90;99.90;;;;;;5109675;27;20049;-79
2022/04/25 07:50:23;;;;;;;16.25;13.43;;;7.90;99.90;;;;;;5124810;27;20102;-79
2022/04/25 07:52:51;;;;;;;16.05;13.82;;;7.90;99.90;;;;;;5103328;27;20523;-78
2022/04/25 07:55:16;;;;;;;16.10;13.40;;;8.00;99.90;;;;;;5090854;27;20374;-78
2022/04/25 07:57:42;;;;;;;15.23;13.20;;;8.00;99.90;;;;;;5127924;27;20053;-78
2022/04/25 08:00:08;;;;;;;14.98;12.27;;;8.00;99.90;;;;;;5090062;27;20047;-77
2022/04/25 08:02:34;;;;;;;16.25;13.80;;;8.10;99.90;;;;;;5101405;27;20039;-78
2022/04/25 08:05:00;;;;;;;15.75;14.10;;;8.10;99.90;;;;;;5090197;27;20111;-79
2022/04/25 08:07:26;;;;;;;18.60;13.82;;;8.00;99.90;;;;;;5106854;27;20046;-79
2022/04/25 08:09:53;;;;;;;17.73;13.75;;;8.00;99.90;;;;;;5128493;27;20077;-76
2022/04/25 08:18:00;;;;;;;16.65;13.75;;;8.00;99.90;;;;;;5130611;27;20500;-79
2022/04/25 08:20:37;;;;;;;16.13;14.43;;;8.00;99.90;;;;;;5079374;27;20125;-77
2022/04/25 08:23:11;;;;;;;18.05;14.48;;;8.00;99.90;;;;;;5090576;27;20062;-76
2022/04/25 08:25:38;;;;;;;18.40;15.00;;;7.90;99.90;;;;;;5126477;27;20052;-79
2022/04/25 08:28:05;;;;;;;19.95;14.77;;;8.00;99.90;;;;;;5108611;27;20055;-76
2022/04/25 08:30:31;;;;;;;18.38;15.50;;;7.90;99.90;;;;;;5108575;27;20055;-74
2022/04/25 08:32:58;;;;;;;19.20;14.90;;;8.00;99.90;;;;;;5105964;27;20043;-77
2022/04/25 08:35:24;;;;;;;18.70;15.48;;;8.00;99.90;;;;;;5122502;27;20055;-80
2022/04/25 08:37:50;;;;;;;16.88;15.02;;;8.00;99.90;;;;;;5145971;27;20098;-79
2022/04/25 08:40:16;;;;;;;18.92;15.02;;;8.00;99.90;;;;;;5086534;27;20043;-79
2022/04/25 08:42:43;;;;;;;17.42;15.05;;;8.10;99.90;;;;;;5105400;27;20043;-80
2022/04/25 08:45:09;;;;;;;20.95;15.10;;;8.10;99.90;;;;;;5122532;27;20058;-80
2022/04/25 08:47:51;;;;;;;18.83;16.30;;;8.10;99.90;;;;;;5103909;27;20098;-77
2022/04/25 08:50:17;;;;;;;18.58;15.65;;;8.10;99.90;;;;;;5107882;27;20050;-76
2022/04/25 08:52:44;;;;;;;19.70;15.07;;;8.10;99.90;;;;;;5140516;27;20553;-76
2022/04/25 08:55:11;;;;;;;19.13;16.75;;;8.10;99.90;;;;;;5107819;27;20055;-78
2022/04/25 08:57:38;;;;;;;18.58;15.25;;;8.10;99.90;;;;;;5127272;27;20050;-77
2022/04/25 09:00:11;;;;;;;19.65;16.75;;;8.10;99.90;;;;;;5124452;27;20559;-78
2022/04/25 09:02:40;;;;;;;19.38;16.17;;;8.20;99.90;;;;;;5142536;27;20273;-80
2022/04/25 09:05:12;;;;;;;23.90;16.08;;;8.20;99.90;;;;;;5122336;27;20078;-80
2022/04/25 09:07:40;;;;;;;20.38;15.63;;;8.30;99.90;;;;;;5080456;27;20110;-76
2022/04/25 09:10:10;;;;;;;19.20;15.40;;;8.30;99.90;;;;;;5108922;27;20051;-77
2022/04/25 09:12:37;;;;;;;;;;;8.30;99.90;;;;;;5110009;27;20138;-79
2022/04/25 09:15:05;;;;;;;17.80;15.95;;;8.30;99.90;;;;;;5125818;27;20066;-75
2022/04/25 09:17:31;;;;;;;19.77;15.82;;;8.40;99.90;;;;;;5125569;27;20049;-77
2022/04/25 09:19:58;;;;;;;19.80;15.88;;;8.30;99.90;;;;;;5103209;27;20050;-78
2022/04/25 09:22:39;;;;;;;23.55;16.42;;;8.40;99.90;;;;;;5120946;27;20115;-78
2022/04/25 09:25:10;;;;;;;20.33;16.55;;;8.50;99.90;;;;;;5112593;27;20073;-77
2022/04/25 09:27:37;;;;;;;20.30;16.80;;;8.40;99.90;;;;;;5103882;27;20097;-77
2022/04/25 09:30:19;;;;;;;22.55;16.08;;;8.40;99.90;;;;;;5116920;27;20123;-77
2022/04/25 09:32:50;;;;;;;19.00;15.63;;;8.40;99.90;;;;;;5117426;27;20282;-74
2022/04/25 09:35:42;;;;;;;19.23;14.93;;;8.40;99.90;;;;;;5098823;27;20174;-77
2022/04/25 09:38:09;;;;;;;20.35;15.75;;;8.30;99.90;;;;;;5117247;27;20573;-81
2022/04/25 09:40:39;;;;;;;18.20;15.48;;;8.30;99.90;;;;;;5104815;27;20234;-80
2022/04/25 09:43:08;;;;;;;17.88;15.10;;;8.20;99.90;;;;;;5101269;27;20095;-77
2022/04/25 09:45:37;;;;;;;16.63;14.87;;;8.30;99.90;;;;;;5116275;27;20060;-78
2022/04/25 09:48:12;;;;;;;19.73;15.95;;;8.20;99.90;;;;;;5123365;27;20418;-77
2022/04/25 09:50:38;;;;;;;18.67;15.85;;;8.20;99.90;;;;;;5116011;27;20596;-79
2022/04/25 09:53:06;;;;;;;17.60;15.20;;;8.10;99.90;;;;;;5120865;27;20643;-78
2022/04/25 09:55:37;;;;;;;19.23;15.73;;;8.10;99.90;;;;;;5136122;27;20050;-79
2022/04/25 09:58:18;;;;;;;15.88;14.20;;;8.10;99.90;;;;;;5113906;27;20419;-78
2022/04/25 10:00:44;;;;;;;16.90;15.10;;;8.10;99.90;;;;;;5115959;27;20083;-78
2022/04/25 10:03:10;;;;;;;18.42;13.77;;;8.10;99.90;;;;;;5085799;27;20043;-79
2022/04/25 10:05:39;;;;;;;14.30;12.77;;;8.20;99.90;;;;;;5119312;27;20561;-79
2022/04/25 10:08:07;;;;;;;17.48;12.68;;;8.20;99.90;;;;;;5120666;27;20426;-78
2022/04/25 10:10:41;;;;;;;17.15;13.15;;;8.20;99.90;;;;;;5109518;27;20559;-78
2022/04/25 10:13:09;;;;;;;14.70;12.30;;;8.30;99.90;;;;;;5109658;27;20039;-78
2022/04/25 10:15:37;;;;;;;17.73;12.20;;;8.30;99.90;;;;;;5128172;27;20121;-81
2022/04/25 10:18:05;;;;;;;15.90;11.32;;;8.30;99.90;;;;;;5107144;27;20057;-78
2022/04/25 10:20:34;;;;;;;13.77;10.90;;;8.40;99.90;;;;;;5108756;27;20614;-79
2022/04/25 10:23:04;;;;;;;16.52;11.13;;;8.40;99.90;;;;;;5104885;27;20526;-80
2022/04/25 10:25:31;;;;;;;14.02;10.80;;;8.50;99.90;;;;;;5124694;27;20066;-77
2022/04/25 10:27:59;;;;;;;15.48;10.10;;;8.50;99.90;;;;;;5108138;27;20049;-79
2022/04/25 10:30:32;;;;;;;15.18;10.75;;;8.60;99.90;;;;;;5124291;27;20559;-80
2022/04/25 10:33:47;;;;;;;12.10;10.80;;;8.60;99.90;;;;;;5107567;27;20460;-80
2022/04/25 10:36:38;;;;;;;16.42;10.82;;;8.60;99.90;;;;;;5078991;27;20570;-79
2022/04/25 10:39:27;;;;;;;15.00;10.40;;;8.70;99.90;;;;;;5119415;27;20535;-77
2022/04/25 10:44:37;;;;;;;13.35;9.30;;;8.70;99.90;;;;;;5136364;27;20136;-80
2022/04/25 10:47:03;;;;;;;13.52;10.43;;;8.70;99.90;;;;;;5125031;27;20649;-86
2022/04/25 10:49:46;;;;;;;14.55;9.98;;;8.70;99.90;;;;;;5107292;27;20741;-85
2022/04/25 10:52:37;;;;;;;13.02;9.98;;;8.80;99.90;;;;;;5120271;27;20042;-79
2022/04/25 10:55:13;;;;;;;13.90;10.48;;;8.90;99.90;;;;;;5116368;27;20830;-78
2022/04/25 10:58:01;;;;;;;12.82;10.18;;;8.80;99.90;;;;;;5121317;27;20062;-79
2022/04/25 11:00:36;;;;;;;15.70;10.20;;;9.00;99.90;;;;;;5119821;27;20056;-79
2022/04/25 11:03:16;;;;;;;12.27;10.02;;;9.00;99.90;;;;;;5103113;27;20050;-79
2022/04/25 11:05:46;;;;;;;13.57;10.73;;;9.10;99.90;;;;;;5102170;27;20055;-78
2022/04/25 11:08:24;;;;;;;14.52;9.30;;;9.30;99.90;;;;;;5114674;27;20047;-79
2022/04/25 11:11:13;;;;;;;11.75;9.20;;;9.40;99.90;;;;;;5107120;27;20038;-80
2022/04/25 11:13:51;;;;;;;12.65;10.20;;;9.60;99.90;;;;;;5111756;27;20122;-80
2022/04/25 11:16:21;;;;;;;14.18;9.93;;;9.80;99.90;;;;;;5115688;27;20079;-80
2022/04/25 11:19:19;;;;;;;12.82;9.55;;;10.00;99.90;;;;;;5102344;27;20047;-79
2022/04/25 11:21:55;;;;;;;11.90;9.82;;;10.10;99.90;;;;;;5122110;27;20548;-80
2022/04/25 11:24:33;;;;;;;12.70;10.05;;;10.20;99.90;;;;;;5117714;27;20603;-82
2022/04/25 11:27:01;;;;;;;12.60;10.27;;;10.30;99.90;;;;;;5099069;27;20126;-81
2022/04/25 11:29:30;;;;;;;13.90;10.45;;;10.40;99.90;;;;;;5101406;27;20057;-81
2022/04/25 11:32:22;;;;;;;12.73;10.38;;;10.60;99.90;;;;;;5085708;27;20075;-81
2022/04/25 11:34:49;;;;;;;11.82;10.63;;;10.80;99.90;;;;;;5113761;27;20042;-80
2022/04/25 11:37:14;;;;;;;11.27;9.77;;;11.00;99.90;;;;;;5073400;27;20069;-79
2022/04/25 11:39:53;;;;;;;13.65;11.18;;;11.10;99.90;;;;;;5134958;27;20061;-80
2022/04/25 11:42:19;;;;;;;12.88;11.07;;;11.30;99.90;;;;;;5121697;27;20043;-78
2022/04/25 11:44:45;;;;;;;12.18;10.95;;;11.30;99.90;;;;;;5084711;27;20039;-81
2022/04/25 11:47:11;;;;;;;14.25;10.88;;;11.40;99.90;;;;;;5089562;27;20034;-80
2022/04/25 11:49:38;;;;;;;12.52;11.27;;;11.60;99.90;;;;;;5117015;27;20124;-76
2022/04/25 11:52:05;;;;;;;14.35;11.25;;;11.70;99.90;;;;;;5090879;27;20043;-80
2022/04/25 11:54:32;;;;;;;11.90;10.68;;;11.80;99.90;;;;;;5104656;27;20122;-79
2022/04/25 11:57:05;;;;;;;13.02;11.63;;;11.90;99.90;;;;;;5115420;27;20057;-78
2022/04/25 11:59:31;;;;;;;12.25;10.93;;;12.10;99.90;;;;;;5104181;27;20481;-76
2022/04/25 12:01:57;;;;;;;12.60;11.27;;;12.10;99.90;;;;;;5108199;27;20116;-79
2022/04/25 12:04:27;;;;;;;13.43;11.93;;;12.10;99.90;;;;;;5104749;27;20051;-78
2022/04/25 12:06:56;;;;;;;12.25;10.98;;;12.20;99.90;;;;;;5125958;27;20052;-76
2022/04/25 12:17:46;;;;;;;11.60;10.25;;;12.00;99.90;;;;;;5115953;27;20106;-76
2022/04/25 12:20:15;;;;;;;13.80;11.30;;;12.00;99.90;;;;;;5109961;27;20038;-78
2022/04/25 12:22:56;;;;;;;14.77;11.23;;;12.10;99.90;;;;;;5137306;27;20074;-77
2022/04/25 12:25:25;;;;;;;12.23;10.90;;;12.20;99.90;;;;;;5112427;27;20493;-76
2022/04/25 12:28:04;;;;;;;12.88;10.10;;;12.20;99.90;;;;;;5117482;27;20038;-79
2022/04/25 12:30:44;;;;;;;13.32;10.00;;;12.30;99.90;;;;;;5102336;27;20142;-79
2022/04/25 12:33:15;;;;;;;11.75;9.93;;;12.30;99.90;;;;;;5114466;27;20047;-78
2022/04/25 12:35:43;;;;;;;10.77;9.73;;;12.40;99.90;;;;;;5094449;27;20046;-78
2022/04/25 12:38:10;;;;;;;11.20;10.10;;;12.60;99.90;;;;;;5092420;27;20058;-77
2022/04/25 12:40:59;;;;;;;15.75;10.70;;;12.80;99.90;;;;;;5099440;27;20070;-80
2022/04/25 12:43:35;;;;;;;12.38;10.65;;;12.80;99.90;;;;;;5068392;27;20051;-77
2022/04/25 12:46:02;;;;;;;12.05;10.43;;;12.90;99.90;;;;;;5130942;27;20037;-79
2022/04/25 12:48:28;;;;;;;13.00;10.07;;;12.90;99.90;;;;;;5103287;27;20139;-79
2022/04/25 12:50:54;;;;;;;11.00;9.80;;;13.10;99.90;;;;;;5114989;27;20114;-79
2022/04/25 12:53:38;;;;;;;11.30;9.50;;;13.10;99.90;;;;;;5081357;27;20039;-86
2022/04/25 12:56:08;;;;;;;11.38;9.55;;;13.30;99.90;;;;;;5104868;27;20507;-81
2022/04/25 12:58:34;;;;;;;12.93;9.97;;;13.50;99.90;;;;;;5099845;27;20070;-79
2022/04/25 13:01:00;;;;;;;11.77;9.77;;;13.60;99.90;;;;;;5100240;27;20073;-78
2022/04/25 13:03:26;;;;;;;12.32;9.57;;;13.70;99.90;;;;;;5099188;27;20058;-80
2022/04/25 13:05:54;;;;;;;13.00;10.60;;;13.70;99.90;;;;;;5104760;27;20810;-78
2022/04/25 13:08:20;;;;;;;11.85;9.35;;;13.70;99.90;;;;;;5117347;27;20505;-78
2022/04/25 13:10:46;;;;;;;11.50;10.13;;;13.70;99.90;;;;;;5116609;27;20502;-80
2022/04/25 13:13:13;;;;;;;12.15;9.85;;;13.70;99.90;;;;;;5101872;27;20086;-79
2022/04/25 13:15:39;;;;;;;11.30;9.75;;;13.70;99.90;;;;;;5095092;27;20366;-77
2022/04/25 13:18:05;;;;;;;11.57;10.38;;;13.70;99.90;;;;;;5114441;27;20047;-82